Time;durP1;ratioP1;P1;durP2;ratioP2;P2;SDS_P1;SDS_P2;PMS_P1;PMS_P2;Temp;Humidity;BMP_temperature;BMP_pressure;BME280_temperature;BME280_humidity;BME280_pressure;Samples;Min_cycle;Max_cycle;Signal;HPM_P1;HPM_P2
2022/03/15 00:00:32;;;;;;;12.25;5.70;;;7.40;99.90;;;;;;4916093;29;20024;-49
2022/03/15 00:02:58;;;;;;;10.30;4.88;;;7.30;99.90;;;;;;4916084;29;20500;-47
2022/03/15 00:05:23;;;;;;;7.53;4.32;;;7.20;99.90;;;;;;4916359;29;20107;-42
2022/03/15 00:07:49;;;;;;;11.35;5.70;;;7.20;99.90;;;;;;4915399;29;20024;-48
2022/03/15 00:10:15;;;;;;;8.48;4.10;;;7.30;99.90;;;;;;4915907;29;20039;-45
2022/03/15 00:12:43;;;;;;;12.27;4.53;;;7.20;99.90;;;;;;4916781;29;20032;-43
2022/03/15 00:15:11;;;;;;;7.40;3.92;;;7.20;99.90;;;;;;4916632;29;20020;-48
2022/03/15 00:17:41;;;;;;;7.03;3.97;;;7.10;99.90;;;;;;4915852;29;20028;-44
2022/03/15 00:20:09;;;;;;;12.23;4.60;;;7.10;99.90;;;;;;4916386;29;20034;-46
2022/03/15 00:22:37;;;;;;;15.05;4.45;;;7.10;99.90;;;;;;4917123;29;20060;-45
2022/03/15 00:25:04;;;;;;;6.80;4.05;;;7.10;99.90;;;;;;4915852;29;20404;-51
2022/03/15 00:27:30;;;;;;;5.32;4.22;;;7.00;99.90;;;;;;4915498;29;20487;-46
2022/03/15 00:29:56;;;;;;;8.15;4.88;;;7.00;99.90;;;;;;4915681;29;20039;-49
2022/03/15 00:32:22;;;;;;;8.05;3.95;;;6.90;99.90;;;;;;4915503;29;20040;-47
2022/03/15 00:34:47;;;;;;;9.70;3.95;;;6.90;99.90;;;;;;4915427;29;20032;-45
2022/03/15 00:37:13;;;;;;;6.13;3.55;;;6.90;99.90;;;;;;4915701;29;20039;-47
2022/03/15 00:39:39;;;;;;;8.05;4.30;;;7.00;99.90;;;;;;4915374;29;20075;-42
2022/03/15 00:42:05;;;;;;;8.13;4.00;;;7.00;99.90;;;;;;4915368;29;20028;-49
2022/03/15 00:44:31;;;;;;;10.80;4.45;;;7.00;99.90;;;;;;4915621;29;20028;-45
2022/03/15 00:46:56;;;;;;;8.70;4.65;;;6.90;99.90;;;;;;4915322;29;20038;-46
2022/03/15 00:49:23;;;;;;;8.40;4.50;;;6.80;99.90;;;;;;4915512;29;20028;-43
2022/03/15 00:51:49;;;;;;;8.90;4.13;;;6.80;99.90;;;;;;4914939;29;20119;-48
2022/03/15 00:54:14;;;;;;;11.75;4.72;;;6.80;99.90;;;;;;4915236;29;20163;-49
2022/03/15 00:56:40;;;;;;;6.32;4.13;;;6.90;99.90;;;;;;4915270;29;20103;-47
2022/03/15 00:59:05;;;;;;;7.93;4.68;;;6.80;99.90;;;;;;4915242;29;20024;-47
2022/03/15 01:01:31;;;;;;;7.28;4.60;;;6.80;99.90;;;;;;4915140;29;20025;-46
2022/03/15 01:03:57;;;;;;;9.20;5.57;;;6.80;99.90;;;;;;4914987;29;20071;-48
2022/03/15 01:06:23;;;;;;;9.98;4.97;;;6.80;99.90;;;;;;4918882;29;20451;-46
2022/03/15 01:08:48;;;;;;;10.55;4.85;;;6.70;99.90;;;;;;4918790;29;20544;-48
2022/03/15 01:11:14;;;;;;;10.27;4.47;;;6.80;99.90;;;;;;4919037;29;20048;-47
2022/03/15 01:13:39;;;;;;;11.93;5.10;;;6.90;99.90;;;;;;4918976;29;20537;-44
2022/03/15 01:16:05;;;;;;;10.45;4.90;;;6.90;99.90;;;;;;4918675;29;20391;-47
2022/03/15 01:18:31;;;;;;;7.15;4.65;;;6.90;99.90;;;;;;4918669;29;20032;-46
2022/03/15 01:20:56;;;;;;;13.77;5.20;;;6.80;99.90;;;;;;4918795;29;20443;-47
2022/03/15 01:23:22;;;;;;;8.00;5.32;;;6.80;99.90;;;;;;4918871;29;20115;-45
2022/03/15 01:25:47;;;;;;;10.68;5.45;;;6.80;99.90;;;;;;4918563;29;20032;-47
2022/03/15 01:28:14;;;;;;;8.65;5.18;;;6.80;99.90;;;;;;4918466;29;20036;-41
2022/03/15 01:30:39;;;;;;;9.82;5.20;;;6.80;99.90;;;;;;4919007;29;20461;-45
2022/03/15 01:33:05;;;;;;;8.85;4.95;;;6.70;99.90;;;;;;4918266;29;20036;-45
2022/03/15 01:35:31;;;;;;;10.02;5.13;;;6.70;99.90;;;;;;4919275;29;20039;-45
2022/03/15 01:37:56;;;;;;;10.27;5.18;;;6.70;99.90;;;;;;4918506;29;20099;-42
2022/03/15 01:40:22;;;;;;;7.68;4.95;;;6.60;99.90;;;;;;4919565;29;20028;-45
2022/03/15 01:42:47;;;;;;;7.50;5.13;;;6.60;99.90;;;;;;4919062;29;20032;-48
2022/03/15 01:45:13;;;;;;;32.95;20.48;;;6.70;99.90;;;;;;4918606;29;20031;-47
2022/03/15 01:47:39;;;;;;;13.88;7.63;;;6.60;99.90;;;;;;4918219;29;20073;-41
2022/03/15 01:50:05;;;;;;;10.30;6.03;;;6.60;99.90;;;;;;4918411;29;20121;-47
2022/03/15 01:52:31;;;;;;;8.45;4.85;;;6.70;99.90;;;;;;4918248;29;20516;-48
2022/03/15 01:54:56;;;;;;;10.82;4.93;;;6.70;99.90;;;;;;4918457;29;20047;-47
2022/03/15 01:57:23;;;;;;;6.65;5.35;;;6.70;99.90;;;;;;4919239;29;20059;-43
2022/03/15 01:59:49;;;;;;;11.57;5.53;;;6.70;99.90;;;;;;4920282;29;20056;-44
2022/03/15 02:02:14;;;;;;;11.35;5.68;;;6.60;99.90;;;;;;4919829;29;20024;-45
2022/03/15 02:04:40;;;;;;;6.55;4.93;;;6.70;99.90;;;;;;4918620;29;20392;-48
2022/03/15 02:07:11;;;;;;;12.93;5.43;;;6.60;99.90;;;;;;4917895;29;20697;-43
2022/03/15 02:09:36;;;;;;;7.05;5.28;;;6.70;99.90;;;;;;4917130;29;20027;-50
2022/03/15 02:12:03;;;;;;;10.57;5.97;;;6.70;99.90;;;;;;4917567;29;20120;-45
2022/03/15 02:14:29;;;;;;;9.00;5.53;;;6.70;99.90;;;;;;4914990;29;20027;-49
2022/03/15 02:16:54;;;;;;;10.45;5.63;;;6.60;99.90;;;;;;4916854;29;20036;-42
2022/03/15 02:19:21;;;;;;;11.55;5.40;;;6.60;99.90;;;;;;4917099;29;20230;-47
2022/03/15 02:21:47;;;;;;;8.90;5.60;;;6.50;99.90;;;;;;4917540;29;20024;-45
2022/03/15 02:24:12;;;;;;;10.30;5.45;;;6.50;99.90;;;;;;4917442;29;20024;-46
2022/03/15 02:26:38;;;;;;;6.63;5.20;;;6.50;99.90;;;;;;4917278;29;20404;-42
2022/03/15 02:29:04;;;;;;;7.57;5.60;;;6.50;99.90;;;;;;4916811;29;20020;-46
2022/03/15 02:31:29;;;;;;;8.80;5.60;;;6.40;99.90;;;;;;4917004;29;20040;-43
2022/03/15 02:33:55;;;;;;;10.98;5.78;;;6.40;99.90;;;;;;4916994;29;20491;-46
2022/03/15 02:36:20;;;;;;;7.88;5.53;;;6.30;99.90;;;;;;4917157;29;20023;-43
2022/03/15 02:38:46;;;;;;;8.88;5.55;;;6.30;99.90;;;;;;4916628;29;20400;-43
2022/03/15 02:41:13;;;;;;;9.45;6.05;;;6.30;99.90;;;;;;4916815;29;20020;-45
2022/03/15 02:43:40;;;;;;;9.15;5.22;;;6.30;99.90;;;;;;4917049;29;20027;-51
2022/03/15 02:46:06;;;;;;;9.38;6.15;;;6.30;99.90;;;;;;4916926;29;20079;-45
2022/03/15 02:48:32;;;;;;;11.25;5.70;;;6.30;99.90;;;;;;4916993;29;20055;-43
2022/03/15 02:51:04;;;;;;;8.43;6.05;;;6.30;99.90;;;;;;4917201;29;20487;-50
2022/03/15 02:53:30;;;;;;;6.93;5.35;;;6.40;99.90;;;;;;4917745;29;20040;-43
2022/03/15 02:55:55;;;;;;;10.73;6.65;;;6.40;99.90;;;;;;4917768;29;20507;-41
2022/03/15 02:58:21;;;;;;;11.40;6.13;;;6.30;99.90;;;;;;4919497;29;20036;-42
2022/03/15 03:03:19;;;;;;;10.27;6.28;;;6.20;99.90;;;;;;4953729;23;20051;-50
2022/03/15 03:05:44;;;;;;;9.50;5.65;;;6.20;99.90;;;;;;4935619;29;20028;-45
2022/03/15 03:08:10;;;;;;;13.63;6.28;;;6.30;99.90;;;;;;4935395;29;20448;-48
2022/03/15 03:10:36;;;;;;;9.63;5.90;;;6.20;99.90;;;;;;4935574;29;20034;-44
2022/03/15 03:13:02;;;;;;;12.13;6.95;;;6.20;99.90;;;;;;4917503;29;20028;-44
2022/03/15 03:15:27;;;;;;;8.80;6.47;;;6.10;99.90;;;;;;4916519;29;20037;-50
2022/03/15 03:17:53;;;;;;;7.38;6.25;;;6.10;99.90;;;;;;4915945;29;20024;-47
2022/03/15 03:20:21;;;;;;;12.55;6.82;;;6.10;99.90;;;;;;4916340;29;20477;-46
2022/03/15 03:22:50;;;;;;;12.45;6.15;;;6.00;99.90;;;;;;4915010;29;20385;-45
2022/03/15 03:25:16;;;;;;;16.23;6.93;;;6.10;99.90;;;;;;4916301;29;20040;-48
2022/03/15 03:27:42;;;;;;;9.15;6.47;;;6.10;99.90;;;;;;4915135;29;20103;-48
2022/03/15 03:30:09;;;;;;;9.70;6.35;;;5.90;99.90;;;;;;4916266;29;20124;-46
2022/03/15 03:32:34;;;;;;;9.43;6.05;;;5.90;99.90;;;;;;4915919;29;20512;-46
2022/03/15 03:35:04;;;;;;;10.73;7.18;;;6.00;99.90;;;;;;4916137;29;20034;-50
2022/03/15 03:37:30;;;;;;;13.30;6.95;;;6.00;99.90;;;;;;4914677;29;20024;-50
2022/03/15 03:39:56;;;;;;;9.02;5.93;;;5.90;99.90;;;;;;4915179;29;20395;-47
2022/03/15 03:42:21;;;;;;;10.63;6.28;;;6.00;99.90;;;;;;4916408;29;20032;-46
2022/03/15 03:44:47;;;;;;;9.85;6.55;;;5.90;99.90;;;;;;4916228;29;20032;-46
2022/03/15 03:47:13;;;;;;;10.43;7.88;;;6.00;99.90;;;;;;4914769;29;20032;-50
2022/03/15 03:49:39;;;;;;;29.80;13.88;;;6.00;99.90;;;;;;4916193;29;20415;-46
2022/03/15 03:52:06;;;;;;;13.07;7.40;;;6.00;99.90;;;;;;4916222;29;20510;-47
2022/03/15 03:54:32;;;;;;;13.85;7.03;;;6.00;99.90;;;;;;4916027;29;20032;-48
2022/03/15 03:56:58;;;;;;;9.68;6.60;;;5.90;99.90;;;;;;4916078;29;20072;-47
2022/03/15 03:59:23;;;;;;;12.25;7.20;;;6.00;99.90;;;;;;4915944;29;20020;-49
2022/03/15 04:01:49;;;;;;;13.32;7.47;;;6.00;99.90;;;;;;4915771;29;20074;-47
2022/03/15 04:04:15;;;;;;;12.77;7.28;;;6.00;99.90;;;;;;4916417;29;20439;-47
2022/03/15 04:06:40;;;;;;;12.73;7.80;;;5.90;99.90;;;;;;4914748;29;20082;-47
2022/03/15 04:09:08;;;;;;;13.77;7.10;;;5.90;99.90;;;;;;4915830;29;20512;-46
2022/03/15 04:11:34;;;;;;;9.07;6.90;;;5.80;99.90;;;;;;4915937;29;20028;-49
2022/03/15 04:13:59;;;;;;;11.65;7.28;;;5.80;99.90;;;;;;4915813;29;20036;-51
2022/03/15 04:16:26;;;;;;;12.68;6.85;;;5.70;99.90;;;;;;4916488;29;20024;-46
2022/03/15 04:18:51;;;;;;;15.43;7.28;;;5.70;99.90;;;;;;4915626;29;20507;-47
2022/03/15 04:21:18;;;;;;;9.25;6.70;;;5.80;99.90;;;;;;4915762;29;20055;-47
2022/03/15 04:23:45;;;;;;;12.60;7.50;;;5.80;99.90;;;;;;4915839;29;20395;-47
2022/03/15 04:26:11;;;;;;;13.25;8.00;;;5.80;99.90;;;;;;4915684;29;20715;-48
2022/03/15 04:28:36;;;;;;;10.25;7.97;;;5.90;99.90;;;;;;4915367;29;20040;-47
2022/03/15 04:31:03;;;;;;;7.90;6.50;;;5.90;99.90;;;;;;4915631;29;20020;-48
2022/03/15 04:33:28;;;;;;;12.05;7.28;;;5.90;99.90;;;;;;4915795;29;20099;-46
2022/03/15 04:35:54;;;;;;;8.98;6.50;;;5.90;99.90;;;;;;4915409;29;20111;-49
2022/03/15 04:38:19;;;;;;;11.52;7.68;;;5.80;99.90;;;;;;4915124;29;20044;-49
2022/03/15 04:40:45;;;;;;;13.93;7.00;;;5.90;99.90;;;;;;4915615;29;20020;-50
2022/03/15 04:43:12;;;;;;;13.50;7.28;;;5.90;99.90;;;;;;4915511;29;20492;-49
2022/03/15 04:45:37;;;;;;;11.88;7.50;;;6.00;99.90;;;;;;4915350;29;20431;-52
2022/03/15 04:48:04;;;;;;;10.73;7.03;;;6.10;99.90;;;;;;4915462;29;20036;-49
2022/03/15 04:50:30;;;;;;;12.82;7.60;;;6.10;99.90;;;;;;4915679;29;20021;-51
2022/03/15 04:52:56;;;;;;;12.18;7.28;;;5.90;99.90;;;;;;4914150;29;20024;-47
2022/03/15 04:55:21;;;;;;;13.65;7.95;;;5.90;99.90;;;;;;4915779;29;20040;-45
2022/03/15 04:57:47;;;;;;;18.15;9.05;;;5.90;99.90;;;;;;4913899;29;20063;-47
2022/03/15 05:00:13;;;;;;;12.98;8.63;;;5.90;99.90;;;;;;4915610;29;20032;-47
2022/03/15 05:02:43;;;;;;;14.15;7.60;;;5.90;99.90;;;;;;4914196;29;20076;-47
2022/03/15 05:05:09;;;;;;;13.40;7.68;;;5.90;99.90;;;;;;4915549;29;20021;-47
2022/03/15 05:07:35;;;;;;;10.43;7.15;;;5.90;99.90;;;;;;4915006;29;20152;-48
2022/03/15 05:12:45;;;;;;;13.23;8.50;;;5.90;99.90;;;;;;4915285;29;20055;-46
2022/03/15 05:15:11;;;;;;;16.10;8.82;;;5.90;99.90;;;;;;4915190;29;20160;-48
2022/03/15 05:17:37;;;;;;;14.13;9.13;;;5.80;99.90;;;;;;4914899;29;20456;-46
2022/03/15 05:20:06;;;;;;;14.45;8.95;;;5.80;99.90;;;;;;4915391;29;20492;-45
2022/03/15 05:22:32;;;;;;;13.82;7.88;;;5.90;99.90;;;;;;4914980;29;20441;-50
2022/03/15 05:24:58;;;;;;;13.75;8.48;;;5.90;99.90;;;;;;4915252;29;20028;-49
2022/03/15 05:27:25;;;;;;;11.00;7.93;;;5.80;99.90;;;;;;4914914;29;20032;-46
2022/03/15 05:29:51;;;;;;;9.30;8.02;;;5.90;99.90;;;;;;4915140;29;20028;-46
2022/03/15 05:32:16;;;;;;;11.10;7.55;;;5.90;99.90;;;;;;4916700;29;20462;-54
2022/03/15 05:34:42;;;;;;;11.35;7.55;;;5.90;99.90;;;;;;4915754;29;20127;-50
2022/03/15 05:37:08;;;;;;;14.60;8.68;;;5.90;99.90;;;;;;4915545;29;20029;-46
2022/03/15 05:39:34;;;;;;;14.00;8.25;;;5.90;99.90;;;;;;4915448;29;20503;-45
2022/03/15 05:42:00;;;;;;;12.77;7.82;;;5.90;99.90;;;;;;4915664;29;20083;-46
2022/03/15 05:44:26;;;;;;;12.75;7.47;;;5.90;99.90;;;;;;4914046;29;20118;-47
2022/03/15 05:46:52;;;;;;;11.32;6.63;;;5.80;99.90;;;;;;4914296;29;20566;-49
2022/03/15 05:49:17;;;;;;;11.40;7.85;;;5.80;99.90;;;;;;4915434;29;20040;-46
2022/03/15 05:51:43;;;;;;;13.13;7.88;;;5.80;99.90;;;;;;4918328;29;20491;-48
2022/03/15 05:54:09;;;;;;;14.38;7.70;;;5.70;99.90;;;;;;4919736;29;20488;-48
2022/03/15 05:56:34;;;;;;;13.27;6.72;;;5.70;99.90;;;;;;4920691;29;20020;-47
2022/03/15 05:59:00;;;;;;;14.27;7.68;;;5.70;99.90;;;;;;4919640;29;20132;-45
2022/03/15 06:01:26;;;;;;;16.13;7.20;;;5.60;99.90;;;;;;4919079;29;20096;-48
2022/03/15 06:03:53;;;;;;;10.50;6.82;;;5.60;99.90;;;;;;4918724;29;20031;-48
2022/03/15 06:06:21;;;;;;;15.98;7.80;;;5.50;99.90;;;;;;4918318;29;20432;-49
2022/03/15 06:08:48;;;;;;;17.65;7.65;;;5.50;99.90;;;;;;4918254;29;20555;-46
2022/03/15 06:11:15;;;;;;;10.90;6.70;;;5.60;99.90;;;;;;4917061;29;20056;-47
2022/03/15 06:13:40;;;;;;;15.50;7.60;;;5.50;99.90;;;;;;4917153;29;20020;-48
2022/03/15 06:16:05;;;;;;;14.23;8.18;;;5.50;99.90;;;;;;4918933;29;20484;-45
2022/03/15 06:18:31;;;;;;;9.68;6.95;;;5.50;99.90;;;;;;4919085;29;20028;-47
2022/03/15 06:20:56;;;;;;;12.40;7.55;;;5.60;99.90;;;;;;4919486;29;20021;-46
2022/03/15 06:23:23;;;;;;;16.77;8.43;;;5.60;99.90;;;;;;4917114;29;20031;-46
2022/03/15 06:25:49;;;;;;;10.93;7.45;;;5.60;99.90;;;;;;4918082;29;20039;-48
2022/03/15 06:28:14;;;;;;;12.13;6.75;;;5.60;99.90;;;;;;4917553;29;20028;-49
2022/03/15 06:30:41;;;;;;;11.25;7.13;;;5.60;99.90;;;;;;4917854;29;20043;-46
2022/03/15 06:33:07;;;;;;;14.85;7.47;;;5.60;99.90;;;;;;4917542;29;20028;-47
2022/03/15 06:35:33;;;;;;;10.63;7.68;;;5.60;99.90;;;;;;4917684;29;20032;-46
2022/03/15 06:38:01;;;;;;;10.60;7.50;;;5.60;99.90;;;;;;4917396;29;20020;-45
2022/03/15 06:40:27;;;;;;;14.43;7.68;;;5.60;99.90;;;;;;4917683;29;20524;-46
2022/03/15 06:42:54;;;;;;;10.68;7.03;;;5.60;99.90;;;;;;4917390;29;20103;-46
2022/03/15 06:45:20;;;;;;;15.45;8.23;;;5.60;99.90;;;;;;4918045;29;20036;-49
2022/03/15 06:47:46;;;;;;;11.18;7.30;;;5.60;99.90;;;;;;4917509;29;20028;-46
2022/03/15 06:50:13;;;;;;;13.57;8.02;;;5.70;99.90;;;;;;4917660;29;20028;-46
2022/03/15 06:52:42;;;;;;;11.15;6.97;;;5.70;99.90;;;;;;4917539;29;20032;-47
2022/03/15 06:55:09;;;;;;;9.80;7.80;;;5.80;99.90;;;;;;4917729;29;20063;-46
2022/03/15 06:57:35;;;;;;;13.50;7.88;;;5.80;99.90;;;;;;4917062;29;20048;-47
2022/03/15 07:00:03;;;;;;;11.48;6.72;;;5.90;99.90;;;;;;4917232;29;20024;-46
2022/03/15 07:02:28;;;;;;;10.45;7.38;;;5.90;99.90;;;;;;4916148;29;20059;-47
2022/03/15 07:04:54;;;;;;;11.02;7.05;;;6.00;99.90;;;;;;4917554;29;20453;-47
2022/03/15 07:07:20;;;;;;;12.60;6.50;;;6.10;99.90;;;;;;4917133;29;20436;-47
2022/03/15 07:09:46;;;;;;;9.88;6.40;;;6.10;99.90;;;;;;4917590;29;20059;-47
2022/03/15 07:12:12;;;;;;;12.48;6.68;;;6.20;99.90;;;;;;4916579;29;20042;-47
2022/03/15 07:14:38;;;;;;;8.38;6.53;;;6.20;99.90;;;;;;4915548;29;20119;-47
2022/03/15 07:17:04;;;;;;;11.32;7.45;;;6.20;99.90;;;;;;4916666;29;20020;-48
2022/03/15 07:19:29;;;;;;;13.98;6.80;;;6.30;99.90;;;;;;4916718;29;20023;-51
2022/03/15 07:21:55;;;;;;;12.40;6.65;;;6.30;99.90;;;;;;4916773;29;20071;-47
2022/03/15 07:24:21;;;;;;;8.95;6.47;;;6.30;99.90;;;;;;4916708;29;20101;-48
2022/03/15 07:26:46;;;;;;;9.45;6.70;;;6.30;99.90;;;;;;4916535;29;20067;-50
2022/03/15 07:29:12;;;;;;;12.48;8.43;;;6.40;99.90;;;;;;4916441;29;20056;-48
2022/03/15 07:31:38;;;;;;;13.60;6.75;;;6.40;99.90;;;;;;4916882;29;20044;-52
2022/03/15 07:34:03;;;;;;;10.38;6.55;;;6.50;99.90;;;;;;4916426;29;20056;-48
2022/03/15 07:36:29;;;;;;;9.60;7.05;;;6.50;99.90;;;;;;4916549;29;20026;-50
2022/03/15 07:38:55;;;;;;;9.10;6.57;;;6.60;99.90;;;;;;4916176;29;20020;-51
2022/03/15 07:41:23;;;;;;;10.68;6.30;;;6.60;99.90;;;;;;4916316;29;20028;-46
2022/03/15 07:43:49;;;;;;;9.20;6.30;;;6.70;99.90;;;;;;4916393;29;20031;-47
2022/03/15 07:46:15;;;;;;;10.82;6.10;;;6.70;99.90;;;;;;4916449;29;20028;-49
2022/03/15 07:48:40;;;;;;;9.55;6.30;;;6.70;99.90;;;;;;4916069;29;20028;-48
2022/03/15 07:51:06;;;;;;;9.80;6.63;;;6.80;99.90;;;;;;4916287;29;20321;-48
2022/03/15 07:53:31;;;;;;;10.77;5.43;;;6.80;99.90;;;;;;4916565;29;20548;-47
2022/03/15 07:56:00;;;;;;;13.50;6.47;;;6.70;99.90;;;;;;4916060;29;20063;-50
2022/03/15 07:58:26;;;;;;;7.63;5.88;;;6.70;99.90;;;;;;4914591;29;20444;-47
2022/03/15 08:00:54;;;;;;;13.65;6.47;;;6.70;99.90;;;;;;4916442;29;20024;-49
2022/03/15 08:03:22;;;;;;;16.75;6.50;;;6.70;99.90;;;;;;4914693;29;20056;-48
2022/03/15 08:05:48;;;;;;;7.55;5.32;;;6.70;99.90;;;;;;4915949;29;20087;-47
2022/03/15 08:08:14;;;;;;;8.20;5.45;;;6.80;99.90;;;;;;4915800;29;20432;-46
2022/03/15 08:10:39;;;;;;;7.57;5.50;;;6.90;99.90;;;;;;4916238;29;20059;-45
2022/03/15 08:13:05;;;;;;;8.60;5.70;;;7.10;99.90;;;;;;4915704;29;20530;-46
2022/03/15 08:15:30;;;;;;;12.02;5.68;;;7.10;99.90;;;;;;4915844;29;20032;-46
2022/03/15 08:17:56;;;;;;;11.98;6.07;;;7.20;99.90;;;;;;4915453;29;20037;-46
2022/03/15 08:20:23;;;;;;;14.55;5.85;;;7.20;99.90;;;;;;4915805;29;20499;-49
2022/03/15 08:22:49;;;;;;;13.43;6.28;;;7.30;99.90;;;;;;4915860;29;20017;-47
2022/03/15 08:25:14;;;;;;;14.15;5.30;;;7.40;99.90;;;;;;4915880;29;20036;-51
2022/03/15 08:27:40;;;;;;;9.48;5.90;;;7.40;99.90;;;;;;4916436;29;20028;-52
2022/03/15 08:30:06;;;;;;;9.60;5.60;;;7.40;99.90;;;;;;4920217;29;20024;-47
2022/03/15 08:32:32;;;;;;;10.00;5.93;;;7.50;99.90;;;;;;4915783;29;20036;-47
2022/03/15 08:34:57;;;;;;;17.33;6.65;;;7.60;99.90;;;;;;4914222;29;20028;-45
2022/03/15 08:37:23;;;;;;;18.05;6.72;;;7.60;99.90;;;;;;4915140;29;20028;-49
2022/03/15 08:39:48;;;;;;;14.43;6.00;;;7.70;99.90;;;;;;4915647;29;20028;-49
2022/03/15 08:42:14;;;;;;;9.75;5.32;;;7.70;99.90;;;;;;4915598;29;20032;-46
2022/03/15 08:44:39;;;;;;;11.13;5.93;;;7.70;99.90;;;;;;4915467;29;20032;-48
2022/03/15 08:47:05;;;;;;;14.27;6.07;;;7.80;99.90;;;;;;4915329;29;20024;-46
2022/03/15 08:49:31;;;;;;;10.85;5.28;;;7.80;99.90;;;;;;4915101;29;20091;-47
2022/03/15 08:51:57;;;;;;;7.03;5.22;;;7.80;99.90;;;;;;4915257;29;20032;-47
2022/03/15 08:54:22;;;;;;;11.02;6.82;;;7.90;99.90;;;;;;4913977;29;20024;-50
2022/03/15 08:56:48;;;;;;;9.18;5.70;;;8.00;99.90;;;;;;4915252;29;20079;-47
2022/03/15 08:59:15;;;;;;;7.50;5.63;;;7.90;99.90;;;;;;4914945;29;20102;-49
2022/03/15 09:01:41;;;;;;;6.65;5.88;;;8.00;99.90;;;;;;4931341;23;20043;-46
2022/03/15 09:04:07;;;;;;;7.57;5.45;;;8.10;99.90;;;;;;4932999;29;20423;-45
2022/03/15 09:06:32;;;;;;;10.00;5.07;;;8.20;99.90;;;;;;4933381;29;20041;-47
2022/03/15 09:09:01;;;;;;;7.05;5.75;;;8.20;99.90;;;;;;4933823;29;20047;-45
2022/03/15 09:11:28;;;;;;;10.90;5.50;;;8.20;99.90;;;;;;4935020;29;20023;-45
2022/03/15 09:13:53;;;;;;;7.65;5.35;;;8.20;99.90;;;;;;4915185;29;20492;-44
2022/03/15 09:16:20;;;;;;;9.38;5.97;;;8.20;99.90;;;;;;4914979;29;20020;-46
2022/03/15 09:18:45;;;;;;;12.63;5.05;;;8.30;99.90;;;;;;4914765;29;20021;-44
2022/03/15 09:21:12;;;;;;;14.23;5.72;;;8.40;99.90;;;;;;4914782;29;20112;-44
2022/03/15 09:23:38;;;;;;;8.98;5.32;;;8.40;99.90;;;;;;4914813;29;20028;-47
2022/03/15 09:26:04;;;;;;;11.30;5.97;;;8.40;99.90;;;;;;4916511;29;20028;-41
2022/03/15 09:28:29;;;;;;;12.18;5.78;;;8.50;99.90;;;;;;4918613;29;20036;-47
2022/03/15 09:30:55;;;;;;;12.10;6.70;;;8.50;99.90;;;;;;4919179;29;20265;-44
2022/03/15 09:33:23;;;;;;;8.10;5.63;;;8.60;99.90;;;;;;4919086;29;20373;-44
2022/03/15 09:35:49;;;;;;;8.23;5.63;;;8.60;99.90;;;;;;4919006;29;20021;-45
2022/03/15 09:38:15;;;;;;;7.85;5.50;;;8.70;99.90;;;;;;4918996;29;20028;-40
2022/03/15 09:40:43;;;;;;;11.80;6.20;;;8.80;99.90;;;;;;4918612;29;20467;-44
2022/03/15 09:43:12;;;;;;;10.48;5.70;;;8.90;99.90;;;;;;4918386;29;20395;-44
2022/03/15 09:45:38;;;;;;;8.93;6.10;;;9.00;99.90;;;;;;4919162;29;20395;-44
2022/03/15 09:48:15;;;;;;;19.50;9.27;;;9.10;99.90;;;;;;4918642;29;20492;-41
2022/03/15 09:50:41;;;;;;;13.52;6.50;;;9.10;99.90;;;;;;4918678;29;20055;-44
2022/03/15 09:53:09;;;;;;;14.57;6.40;;;9.10;99.90;;;;;;4918915;29;20547;-49
2022/03/15 09:55:35;;;;;;;13.18;6.53;;;9.10;99.90;;;;;;4919036;29;20032;-46
2022/03/15 09:58:01;;;;;;;11.02;6.50;;;9.20;99.90;;;;;;4918535;29;20031;-45
2022/03/15 10:00:26;;;;;;;8.93;6.20;;;9.20;99.90;;;;;;4918240;29;20020;-46
2022/03/15 10:02:52;;;;;;;8.65;5.72;;;9.20;99.90;;;;;;4917590;29;20403;-48
2022/03/15 10:05:19;;;;;;;10.35;5.72;;;9.10;99.90;;;;;;4918168;29;20039;-41
2022/03/15 10:07:46;;;;;;;13.80;6.75;;;9.10;99.90;;;;;;4917958;29;20032;-45
2022/03/15 10:10:14;;;;;;;11.95;6.30;;;9.10;99.90;;;;;;4917865;29;20099;-47
2022/03/15 10:12:40;;;;;;;12.60;5.53;;;9.20;99.90;;;;;;4917573;29;20411;-50
2022/03/15 10:15:14;;;;;;;16.15;6.53;;;9.20;99.90;;;;;;4917846;29;20113;-46
2022/03/15 10:17:47;;;;;;;8.85;5.65;;;9.30;99.90;;;;;;4917591;29;20030;-45
2022/03/15 10:20:18;;;;;;;10.45;5.82;;;9.30;99.90;;;;;;4917617;29;20099;-42
2022/03/15 10:22:51;;;;;;;9.45;5.72;;;9.40;99.90;;;;;;4917751;29;20020;-49
2022/03/15 10:25:16;;;;;;;13.40;6.05;;;9.50;99.90;;;;;;4917724;29;20111;-49
2022/03/15 10:27:48;;;;;;;10.65;7.13;;;9.40;99.90;;;;;;4917262;29;20136;-47
2022/03/15 10:30:14;;;;;;;15.15;7.45;;;9.40;99.90;;;;;;4917648;29;20039;-46
2022/03/15 10:32:40;;;;;;;11.20;7.70;;;9.40;99.90;;;;;;4917490;29;20032;-47
2022/03/15 10:35:08;;;;;;;8.10;6.60;;;9.40;99.90;;;;;;4917459;29;20496;-47
2022/03/15 10:37:35;;;;;;;12.30;6.20;;;9.20;99.90;;;;;;4916873;29;20517;-44
2022/03/15 10:40:02;;;;;;;20.38;6.70;;;9.10;99.90;;;;;;4917378;29;20028;-48
2022/03/15 10:42:28;;;;;;;15.70;7.78;;;9.10;99.90;;;;;;4917368;29;20506;-44
2022/03/15 10:44:53;;;;;;;9.75;7.15;;;9.10;99.90;;;;;;4917242;29;20067;-45
2022/03/15 10:47:21;;;;;;;10.60;7.45;;;9.20;99.90;;;;;;4916924;29;20347;-49
2022/03/15 10:49:51;;;;;;;12.10;7.55;;;9.10;99.90;;;;;;4917245;29;20024;-45
2022/03/15 10:52:33;;;;;;;11.85;7.22;;;9.20;99.90;;;;;;4917137;29;20030;-47
2022/03/15 10:55:27;;;;;;;14.45;8.07;;;9.00;99.90;;;;;;4917037;29;20020;-46
2022/03/15 10:57:53;;;;;;;10.95;6.78;;;9.00;99.90;;;;;;4916755;29;20032;-50
2022/03/15 11:00:29;;;;;;;9.30;7.35;;;8.90;99.90;;;;;;4917265;29;20043;-41
2022/03/15 11:02:56;;;;;;;9.10;7.55;;;8.80;99.90;;;;;;4916833;29;20498;-46
2022/03/15 11:05:27;;;;;;;12.95;7.65;;;8.80;99.90;;;;;;4917073;29;20111;-46
2022/03/15 11:07:53;;;;;;;9.85;7.35;;;8.80;99.90;;;;;;4916584;29;20024;-49
2022/03/15 11:10:18;;;;;;;10.65;7.25;;;8.70;99.90;;;;;;4916819;29;20412;-47
2022/03/15 11:12:59;;;;;;;10.43;7.50;;;8.70;99.90;;;;;;4916800;29;20400;-41
2022/03/15 11:15:28;;;;;;;11.23;6.80;;;8.70;99.90;;;;;;4916728;29;20084;-45
2022/03/15 11:17:58;;;;;;;16.75;7.07;;;8.60;99.90;;;;;;4916490;29;20020;-47
2022/03/15 11:20:24;;;;;;;10.52;6.55;;;8.60;99.90;;;;;;4916586;29;20036;-48
2022/03/15 11:22:52;;;;;;;11.75;8.55;;;8.70;99.90;;;;;;4916520;29;20035;-47
2022/03/15 11:25:20;;;;;;;12.70;6.32;;;8.60;99.90;;;;;;4916987;29;20518;-47
2022/03/15 11:27:51;;;;;;;7.95;6.43;;;8.60;99.90;;;;;;4916511;29;20035;-41
2022/03/15 11:30:19;;;;;;;9.95;6.82;;;8.70;99.90;;;;;;4916622;29;20584;-41
2022/03/15 11:32:45;;;;;;;9.43;6.55;;;8.50;99.90;;;;;;4916456;29;20032;-48
2022/03/15 11:35:13;;;;;;;12.95;7.15;;;8.40;99.90;;;;;;4916262;29;20028;-45
2022/03/15 11:37:41;;;;;;;12.50;7.15;;;8.40;99.90;;;;;;4916128;29;20028;-46
2022/03/15 11:40:09;;;;;;;12.23;7.85;;;8.30;99.90;;;;;;4916462;29;20024;-42
2022/03/15 11:42:39;;;;;;;10.02;7.50;;;8.30;99.90;;;;;;4916420;29;20024;-47
2022/03/15 11:45:29;;;;;;;16.73;8.30;;;8.20;99.90;;;;;;4916342;29;20036;-47
2022/03/15 11:47:57;;;;;;;16.33;8.45;;;8.10;99.90;;;;;;4914027;29;20024;-48
2022/03/15 11:50:50;;;;;;;16.65;9.15;;;8.20;99.90;;;;;;4916249;29;20060;-47
2022/03/15 11:53:33;;;;;;;12.60;8.82;;;8.10;99.90;;;;;;4916184;29;20146;-47
2022/03/15 11:56:27;;;;;;;12.65;9.00;;;8.10;99.90;;;;;;4915762;29;20067;-45
2022/03/15 11:58:54;;;;;;;16.00;9.32;;;8.10;99.90;;;;;;4914796;29;21217;-41
2022/03/15 12:01:22;;;;;;;19.02;9.25;;;8.00;99.90;;;;;;4912952;29;20050;-47
2022/03/15 12:03:52;;;;;;;16.20;9.13;;;8.00;99.90;;;;;;4914564;29;20028;-45
2022/03/15 12:06:20;;;;;;;17.58;10.05;;;8.00;99.90;;;;;;4913832;29;20484;-44
2022/03/15 12:08:57;;;;;;;15.05;9.13;;;7.90;99.90;;;;;;4914346;29;20051;-45
2022/03/15 12:11:33;;;;;;;16.58;10.70;;;7.90;99.90;;;;;;4915629;29;20028;-46
2022/03/15 12:14:07;;;;;;;20.05;10.38;;;7.90;99.90;;;;;;4914063;29;20032;-45
2022/03/15 12:16:37;;;;;;;21.05;11.60;;;7.90;99.90;;;;;;4914551;29;20501;-40
2022/03/15 12:19:13;;;;;;;17.27;10.77;;;7.90;99.90;;;;;;4915370;29;20492;-40
2022/03/15 12:21:56;;;;;;;16.02;11.13;;;7.90;99.90;;;;;;4915660;29;20123;-45
2022/03/15 12:24:34;;;;;;;13.25;10.05;;;7.90;99.90;;;;;;4915708;29;20024;-44
2022/03/15 12:27:02;;;;;;;23.60;12.10;;;7.90;99.90;;;;;;4915506;29;20515;-43
2022/03/15 12:29:29;;;;;;;20.88;12.77;;;7.90;99.90;;;;;;4915355;29;20035;-40
2022/03/15 12:31:57;;;;;;;17.05;11.32;;;7.80;99.90;;;;;;4915452;29;20052;-41
2022/03/15 12:34:26;;;;;;;16.85;11.77;;;7.90;99.90;;;;;;4915241;29;20028;-44
2022/03/15 12:36:57;;;;;;;18.67;11.63;;;8.00;99.90;;;;;;4915707;29;20035;-44
2022/03/15 12:39:26;;;;;;;19.13;10.65;;;8.10;99.90;;;;;;4915816;29;20089;-44
2022/03/15 12:42:15;;;;;;;18.13;11.32;;;8.00;99.90;;;;;;4915749;29;20024;-45
2022/03/15 12:44:59;;;;;;;16.75;12.90;;;8.00;99.90;;;;;;4915642;29;20028;-41
2022/03/15 12:47:27;;;;;;;18.50;11.02;;;7.90;99.90;;;;;;4915695;29;20028;-44
2022/03/15 12:50:15;;;;;;;20.92;13.18;;;7.80;99.90;;;;;;4916463;29;20461;-44
2022/03/15 12:52:49;;;;;;;22.17;11.57;;;7.80;99.90;;;;;;4916527;29;20024;-44
2022/03/15 12:55:22;;;;;;;27.23;12.85;;;7.80;99.90;;;;;;4916594;29;20035;-45